Time;durP1;ratioP1;P1;durP2;ratioP2;P2;SDS_P1;SDS_P2;PMS_P1;PMS_P2;Temp;Humidity;BMP_temperature;BMP_pressure;BME280_temperature;BME280_humidity;BME280_pressure;Samples;Min_cycle;Max_cycle;Signal;HPM_P1;HPM_P2
2021/06/02 00:02:20;;;;;;;;;;;;;;;12.53;66.00;100139.75;1748275;81;20204;-57
2021/06/02 00:04:53;;;;;;;;;;;;;;;12.56;66.17;100152.59;1787795;77;20148;-56
2021/06/02 00:07:27;;;;;;;;;;;;;;;12.55;66.20;100124.78;1825269;77;20233;-56
2021/06/02 00:10:13;;;;;;;;;;;;;;;12.48;66.30;100133.08;1748754;81;20185;-56
2021/06/02 00:12:48;;;;;;;;;;;;;;;12.48;66.49;100112.17;1829466;77;20248;-56
2021/06/02 00:15:22;;;;;;;;;;;;;;;12.43;66.65;100109.07;1809303;77;20495;-56
2021/06/02 00:17:56;;;;;;;;;;;;;;;12.42;66.84;100115.25;1793593;77;20269;-56
2021/06/02 00:20:44;;;;;;;;;;;;;;;12.37;67.07;100117.84;1750249;80;20291;-57
2021/06/02 00:23:18;;;;;;;;;;;;;;;12.43;67.37;100122.14;1792493;77;20250;-56
2021/06/02 00:25:52;;;;;;;;;;;;;;;12.43;67.51;100127.37;1817300;77;20147;-56
2021/06/02 00:28:28;;;;;;;;;;;;;;;12.43;67.53;100135.20;1786051;77;20258;-56
2021/06/02 00:31:13;;;;;;;;;;;;;;;12.37;67.64;100126.99;1734908;81;20184;-56
2021/06/02 00:33:48;;;;;;;;;;;;;;;12.38;67.80;100119.04;1789349;77;20219;-56
2021/06/02 00:36:23;;;;;;;;;;;;;;;12.35;67.94;100112.73;1817194;77;20456;-56
2021/06/02 00:38:58;;;;;;;;;;;;;;;12.31;68.05;100120.45;1840440;77;20241;-56
2021/06/02 00:41:34;;;;;;;;;;;;;;;12.28;68.29;100121.98;1789641;77;20168;-57
2021/06/02 00:44:19;;;;;;;;;;;;;;;12.21;68.39;100118.16;1747616;81;20200;-57
2021/06/02 00:46:56;;;;;;;;;;;;;;;12.22;68.64;100122.91;1812237;77;20237;-56
2021/06/02 00:49:30;;;;;;;;;;;;;;;12.19;68.81;100116.13;1805857;77;20258;-57
2021/06/02 00:52:16;;;;;;;;;;;;;;;12.14;68.89;100120.86;1772498;80;20153;-56
2021/06/02 00:54:52;;;;;;;;;;;;;;;12.19;69.04;100123.97;1809374;77;20276;-56
2021/06/02 00:57:26;;;;;;;;;;;;;;;12.18;69.03;100114.47;1786668;77;20268;-56
2021/06/02 01:00:08;;;;;;;;;;;;;;;12.20;69.13;100106.52;1784314;77;20135;-57
2021/06/02 01:02:46;;;;;;;;;;;;;;;12.21;69.06;100114.23;1839825;77;20172;-56
2021/06/02 01:05:32;;;;;;;;;;;;;;;12.17;69.12;100110.19;1764174;80;20367;-57
2021/06/02 01:08:07;;;;;;;;;;;;;;;12.19;69.12;100110.91;1781432;77;20153;-56
2021/06/02 01:10:42;;;;;;;;;;;;;;;12.17;69.24;100115.41;1821888;77;20178;-56
2021/06/02 01:13:17;;;;;;;;;;;;;;;12.14;69.40;100102.58;1793469;77;20238;-56
2021/06/02 01:15:51;;;;;;;;;;;;;;;12.11;69.62;100110.67;1815554;77;20151;-56
2021/06/02 01:18:26;;;;;;;;;;;;;;;12.08;69.90;100110.91;1779613;77;20246;-56
2021/06/02 01:21:17;;;;;;;;;;;;;;;12.03;70.07;100103.88;1699290;83;20230;-57
2021/06/02 01:23:55;;;;;;;;;;;;;;;12.04;70.29;100110.77;1787593;77;20263;-56
2021/06/02 01:26:30;;;;;;;;;;;;;;;12.01;70.43;100107.91;1805700;77;20264;-56
2021/06/02 01:29:16;;;;;;;;;;;;;;;11.93;70.50;100101.11;1739282;81;20383;-56
2021/06/02 01:32:09;;;;;;;;;;;;;;;11.97;70.71;100100.41;1827225;77;20436;-56
2021/06/02 01:35:18;;;;;;;;;;;;;;;11.96;71.00;100106.58;1833039;77;20145;-56
2021/06/02 01:38:30;;;;;;;;;;;;;;;11.95;71.15;100093.16;1800766;77;20540;-57
2021/06/02 01:41:26;;;;;;;;;;;;;;;11.95;71.35;100095.78;1792587;77;20262;-56
2021/06/02 01:44:33;;;;;;;;;;;;;;;11.95;71.53;100106.22;1818660;77;20113;-56
2021/06/02 01:47:26;;;;;;;;;;;;;;;11.94;71.64;100104.55;1825970;77;20259;-56
2021/06/02 01:50:39;;;;;;;;;;;;;;;11.91;71.75;100121.76;1804625;77;20281;-56
2021/06/02 01:53:42;;;;;;;;;;;;;;;11.87;71.82;100112.01;1824325;77;20283;-56
2021/06/02 01:57:06;;;;;;;;;;;;;;;11.83;71.99;100114.95;1811637;77;20126;-56
2021/06/02 02:00:18;;;;;;;;;;;;;;;11.80;72.24;100122.06;1823116;77;20483;-56
2021/06/02 02:03:02;;;;;;;;;;;;;;;11.78;72.55;100103.06;1809462;77;20754;-56
2021/06/02 02:05:52;;;;;;;;;;;;;;;11.78;72.79;100102.23;1795357;77;20270;-56
2021/06/02 02:08:42;;;;;;;;;;;;;;;11.78;72.96;100099.15;1812743;77;20112;-56
2021/06/02 02:11:36;;;;;;;;;;;;;;;11.79;73.20;100116.48;1786882;77;20122;-56
2021/06/02 02:14:33;;;;;;;;;;;;;;;11.78;73.28;100109.59;1811598;77;20468;-56
2021/06/02 02:17:46;;;;;;;;;;;;;;;11.78;73.53;100109.59;1809865;77;20281;-56
2021/06/02 02:20:37;;;;;;;;;;;;;;;11.80;73.77;100115.53;1790019;77;20145;-56
2021/06/02 02:23:38;;;;;;;;;;;;;;;11.78;73.95;100110.90;1805311;77;20515;-56
2021/06/02 02:26:50;;;;;;;;;;;;;;;11.77;74.11;100122.77;1817447;77;20219;-56
2021/06/02 02:29:56;;;;;;;;;;;;;;;11.77;74.30;100114.92;1805488;77;20118;-56
2021/06/02 02:32:49;;;;;;;;;;;;;;;11.78;74.51;100097.84;1804995;77;20260;-56
2021/06/02 02:35:41;;;;;;;;;;;;;;;11.75;74.59;100099.34;1741111;81;20177;-56
2021/06/02 02:38:51;;;;;;;;;;;;;;;11.82;74.68;100098.45;1803895;77;20224;-56
2021/06/02 02:41:42;;;;;;;;;;;;;;;11.82;74.72;100114.13;1800897;77;20765;-56
2021/06/02 02:44:37;;;;;;;;;;;;;;;11.81;74.79;100109.38;1804665;77;20180;-56
2021/06/02 02:47:34;;;;;;;;;;;;;;;11.81;74.89;100103.31;1815212;77;20631;-56
2021/06/02 02:50:18;;;;;;;;;;;;;;;11.78;74.89;100120.51;1816027;77;20518;-56
2021/06/02 02:53:21;;;;;;;;;;;;;;;11.74;74.89;100113.34;1786799;77;20246;-57
2021/06/02 02:56:01;;;;;;;;;;;;;;;11.74;75.00;100104.20;1770660;77;20296;-57
2021/06/02 02:58:59;;;;;;;;;;;;;;;11.75;75.15;100100.64;1802145;77;20236;-56
2021/06/02 03:01:56;;;;;;;;;;;;;;;11.80;75.24;100103.79;1791417;77;20354;-56
2021/06/02 03:04:50;;;;;;;;;;;;;;;11.81;75.15;100111.98;1777414;77;20478;-56
2021/06/02 03:07:36;;;;;;;;;;;;;;;11.79;75.09;100120.40;1741100;81;20406;-56
2021/06/02 03:10:13;;;;;;;;;;;;;;;11.85;75.13;100118.28;1812059;77;20479;-56
2021/06/02 03:12:57;;;;;;;;;;;;;;;11.84;75.06;100125.28;1775997;77;20256;-56
2021/06/02 03:15:45;;;;;;;;;;;;;;;11.78;75.10;100121.34;1750085;81;20156;-57
2021/06/02 03:18:27;;;;;;;;;;;;;;;11.83;75.15;100104.51;1818888;78;20488;-56
2021/06/02 03:21:15;;;;;;;;;;;;;;;11.81;75.18;100109.38;1787400;77;20301;-56
2021/06/02 03:24:17;;;;;;;;;;;;;;;11.78;75.25;100114.81;1791252;77;20190;-56
2021/06/02 03:26:58;;;;;;;;;;;;;;;11.78;75.41;100108.28;1800903;77;20544;-56
2021/06/02 03:30:09;;;;;;;;;;;;;;;11.74;75.54;100113.34;1737093;82;20139;-56
2021/06/02 03:32:53;;;;;;;;;;;;;;;11.78;75.67;100113.98;1808211;77;20258;-56
2021/06/02 03:36:05;;;;;;;;;;;;;;;11.79;75.75;100113.88;1787168;77;20513;-56
2021/06/02 03:38:58;;;;;;;;;;;;;;;11.81;75.80;100130.26;1807437;77;20241;-56
2021/06/02 03:41:56;;;;;;;;;;;;;;;11.77;75.81;100112.31;1739360;82;20133;-57
2021/06/02 03:44:38;;;;;;;;;;;;;;;11.79;75.82;100110.42;1841735;77;20494;-56
2021/06/02 03:47:45;;;;;;;;;;;;;;;11.77;75.81;100112.31;1794943;77;20179;-56
2021/06/02 03:50:23;;;;;;;;;;;;;;;11.76;75.85;100114.06;1825918;77;20338;-56
2021/06/02 03:53:19;;;;;;;;;;;;;;;11.71;75.89;100110.12;1778494;78;20278;-57
2021/06/02 03:56:00;;;;;;;;;;;;;;;11.75;76.09;100100.64;1792712;77;20517;-56
2021/06/02 03:58:47;;;;;;;;;;;;;;;11.78;76.15;100099.15;1817364;77;20465;-56
2021/06/02 04:01:43;;;;;;;;;;;;;;;11.77;76.09;100109.70;1779519;80;20299;-56
2021/06/02 04:05:03;;;;;;;;;;;;;;;11.84;76.11;100103.09;1840093;76;20428;-57
2021/06/02 04:07:47;;;;;;;;;;;;;;;11.84;76.14;100112.23;1817413;77;20262;-56
2021/06/02 04:10:59;;;;;;;;;;;;;;;11.81;76.15;100108.53;1707314;83;20403;-56
2021/06/02 04:13:55;;;;;;;;;;;;;;;11.84;76.12;100100.48;1828400;77;20251;-56
2021/06/02 04:16:38;;;;;;;;;;;;;;;11.85;76.14;100094.78;1815478;77;20218;-56
2021/06/02 04:19:15;;;;;;;;;;;;;;;11.89;76.21;100094.92;1799512;77;20276;-56
2021/06/02 04:21:50;;;;;;;;;;;;;;;11.89;76.17;100094.92;1801434;77;20151;-56
2021/06/02 04:24:37;;;;;;;;;;;;;;;11.87;76.26;100100.73;1770924;80;20201;-57
2021/06/02 04:27:13;;;;;;;;;;;;;;;11.92;76.26;100094.70;1815829;77;20237;-56
2021/06/02 04:29:49;;;;;;;;;;;;;;;11.93;76.31;100123.31;1805433;77;20173;-56
2021/06/02 04:32:39;;;;;;;;;;;;;;;11.88;76.25;100105.84;1733102;82;20268;-56
2021/06/02 04:35:17;;;;;;;;;;;;;;;11.89;76.28;100097.53;1772128;77;20184;-56
2021/06/02 04:37:51;;;;;;;;;;;;;;;11.88;76.31;100099.78;1788393;77;20270;-56
2021/06/02 04:40:39;;;;;;;;;;;;;;;11.81;76.40;100101.54;1748164;81;20267;-56
2021/06/02 04:43:38;;;;;;;;;;;;;;;11.85;76.56;100092.17;1807531;75;20269;-56
2021/06/02 04:46:12;;;;;;;;;;;;;;;11.86;76.70;100095.14;1781636;77;20385;-56
2021/06/02 04:49:06;;;;;;;;;;;;;;;11.88;76.83;100099.31;1794708;77;20287;-56
2021/06/02 04:52:00;;;;;;;;;;;;;;;11.91;76.89;100089.11;1796713;77;20254;-56
2021/06/02 04:55:04;;;;;;;;;;;;;;;11.95;76.90;100103.61;1804821;77;20162;-56
2021/06/02 04:58:11;;;;;;;;;;;;;;;11.95;76.90;100104.92;1809607;77;20261;-56
2021/06/02 05:01:12;;;;;;;;;;;;;;;11.97;76.93;100097.80;1802053;77;20154;-56
2021/06/02 05:04:05;;;;;;;;;;;;;;;11.97;77.03;100104.33;1776405;77;20268;-56
2021/06/02 05:06:46;;;;;;;;;;;;;;;11.98;77.04;100094.25;1805121;77;20234;-56
2021/06/02 05:09:59;;;;;;;;;;;;;;;11.94;77.12;100104.55;1773311;80;20147;-57
2021/06/02 05:12:47;;;;;;;;;;;;;;;12.03;77.25;100099.48;1783069;77;20395;-56
2021/06/02 05:15:36;;;;;;;;;;;;;;;12.07;77.33;100100.09;1803231;77;20119;-56
2021/06/02 05:19:15;;;;;;;;;;;;;;;12.06;77.28;100097.13;1740125;81;20442;-56
2021/06/02 05:22:06;;;;;;;;;;;;;;;12.09;77.19;100091.67;1809960;77;20364;-56
2021/06/02 05:25:11;;;;;;;;;;;;;;;12.06;77.21;100093.20;1815047;77;20369;-56
2021/06/02 05:28:18;;;;;;;;;;;;;;;12.04;77.31;100093.31;1816214;77;20381;-56
2021/06/02 05:31:23;;;;;;;;;;;;;;;12.07;77.49;100104.02;1803490;77;20633;-57
2021/06/02 05:34:29;;;;;;;;;;;;;;;12.08;77.51;100087.39;1792721;77;20504;-56
2021/06/02 05:37:15;;;;;;;;;;;;;;;12.10;77.60;100092.03;1795505;77;20346;-57
2021/06/02 05:40:22;;;;;;;;;;;;;;;12.12;77.71;100101.89;1794040;77;20292;-56
2021/06/02 05:43:15;;;;;;;;;;;;;;;12.17;77.77;100101.52;1792377;77;20146;-56
2021/06/02 05:46:27;;;;;;;;;;;;;;;12.19;77.62;100099.62;1795655;77;20229;-56
2021/06/02 05:49:19;;;;;;;;;;;;;;;12.21;77.48;100110.32;1805216;77;20157;-56
2021/06/02 05:52:19;;;;;;;;;;;;;;;12.22;77.38;100102.84;1798533;77;20270;-56
2021/06/02 05:55:09;;;;;;;;;;;;;;;12.25;77.29;100097.39;1802017;77;20242;-56
2021/06/02 05:58:21;;;;;;;;;;;;;;;12.26;77.22;100098.22;1819748;77;20275;-56
2021/06/02 06:01:13;;;;;;;;;;;;;;;12.27;77.08;100094.19;1787519;77;20147;-56
2021/06/02 06:04:21;;;;;;;;;;;;;;;12.22;77.06;100098.92;1739917;81;20134;-57
2021/06/02 06:07:20;;;;;;;;;;;;;;;12.27;76.98;100107.72;1789222;77;20153;-57
2021/06/02 06:09:58;;;;;;;;;;;;;;;12.25;76.94;100108.31;1788556;77;20224;-56
2021/06/02 06:12:51;;;;;;;;;;;;;;;12.24;76.94;100117.93;1787765;77;20434;-56
2021/06/02 06:15:42;;;;;;;;;;;;;;;12.22;76.93;100117.21;1806642;77;20266;-56
2021/06/02 06:19:05;;;;;;;;;;;;;;;12.17;76.96;100119.33;1764502;80;20398;-60
2021/06/02 06:21:55;;;;;;;;;;;;;;;12.22;77.15;100121.13;1831016;77;20249;-61
2021/06/02 06:24:39;;;;;;;;;;;;;;;11.97;77.50;100106.94;1813523;77;20291;-61
2021/06/02 06:27:31;;;;;;;;;;;;;;;11.63;78.70;100123.72;1781994;80;20176;-61
2021/06/02 06:30:12;;;;;;;;;;;;;;;11.40;79.93;100110.17;1825870;77;20505;-61
2021/06/02 06:32:48;;;;;;;;;;;;;;;11.26;80.74;100120.31;1832709;77;20222;-60
2021/06/02 06:35:23;;;;;;;;;;;;;;;11.21;81.45;100124.19;1829968;77;20499;-63
2021/06/02 06:38:11;;;;;;;;;;;;;;;11.13;81.83;100129.47;1777081;80;20262;-59
2021/06/02 06:40:45;;;;;;;;;;;;;;;11.13;82.18;100135.99;1828708;77;20225;-58
2021/06/02 06:43:21;;;;;;;;;;;;;;;11.11;82.55;100134.43;1833325;77;20354;-60
2021/06/02 06:45:56;;;;;;;;;;;;;;;11.06;82.72;100124.32;1816784;77;20133;-59
2021/06/02 06:48:44;;;;;;;;;;;;;;;11.03;82.94;100146.70;1749346;80;20423;-58
2021/06/02 06:51:21;;;;;;;;;;;;;;;11.06;83.11;100149.56;1773227;77;20261;-61
2021/06/02 06:53:57;;;;;;;;;;;;;;;11.02;83.28;100148.94;1796899;78;20115;-59
2021/06/02 06:56:43;;;;;;;;;;;;;;;10.98;83.65;100143.58;1755884;80;20296;-58
2021/06/02 06:59:19;;;;;;;;;;;;;;;11.03;83.53;100140.18;1815865;77;20346;-59
2021/06/02 07:01:53;;;;;;;;;;;;;;;11.06;83.64;100134.75;1813162;77;20857;-59
2021/06/02 07:04:31;;;;;;;;;;;;;;;11.08;83.65;100149.83;1821281;77;20259;-59
2021/06/02 07:07:07;;;;;;;;;;;;;;;11.08;83.71;100140.69;1832873;78;20249;-60
2021/06/02 07:09:53;;;;;;;;;;;;;;;11.09;83.77;100131.09;1779105;80;20158;-58
2021/06/02 07:12:27;;;;;;;;;;;;;;;11.16;83.54;100137.55;1795296;77;20255;-58
2021/06/02 07:15:21;;;;;;;;;;;;;;;11.20;83.49;100132.95;1823098;77;20129;-60
2021/06/02 07:18:08;;;;;;;;;;;;;;;11.18;83.35;100137.45;1820149;77;20143;-58
2021/06/02 07:20:54;;;;;;;;;;;;;;;11.12;83.41;100117.38;1781580;80;20342;-58
2021/06/02 07:23:27;;;;;;;;;;;;;;;11.18;83.39;100136.14;1831323;77;20198;-58
2021/06/02 07:26:01;;;;;;;;;;;;;;;11.22;83.46;100136.29;1809704;77;20505;-57
2021/06/02 07:28:38;;;;;;;;;;;;;;;11.23;82.81;100145.78;1824818;77;20502;-58
2021/06/02 07:31:13;;;;;;;;;;;;;;;11.24;82.80;100143.07;1813331;77;20141;-59
2021/06/02 07:33:59;;;;;;;;;;;;;;;11.22;82.86;100148.86;1765810;80;20294;-60
2021/06/02 07:36:33;;;;;;;;;;;;;;;11.30;82.84;100146.52;1844122;77;20264;-58
2021/06/02 07:39:09;;;;;;;;;;;;;;;11.34;82.90;100145.36;1830364;77;20147;-58
2021/06/02 07:41:43;;;;;;;;;;;;;;;11.38;82.58;100148.13;1823747;77;20155;-58
2021/06/02 07:44:19;;;;;;;;;;;;;;;11.43;82.47;100147.33;1834025;77;20139;-61
2021/06/02 07:46:53;;;;;;;;;;;;;;;11.48;82.31;100147.00;1841102;77;20244;-58
2021/06/02 07:49:26;;;;;;;;;;;;;;;11.54;81.92;100142.66;1790450;77;20370;-58
2021/06/02 07:52:13;;;;;;;;;;;;;;;11.51;81.45;100115.47;1759098;81;20325;-57
2021/06/02 07:54:47;;;;;;;;;;;;;;;11.59;81.02;100132.72;1829111;77;20243;-58
2021/06/02 07:57:20;;;;;;;;;;;;;;;11.62;80.91;100133.80;1830994;77;20222;-57
2021/06/02 07:59:55;;;;;;;;;;;;;;;11.62;80.56;100139.02;1831369;77;20510;-58
2021/06/02 08:02:27;;;;;;;;;;;;;;;11.64;80.26;100143.66;1820262;77;20125;-57
2021/06/02 08:05:02;;;;;;;;;;;;;;;11.64;80.21;100148.87;1821927;77;20543;-57
2021/06/02 08:07:36;;;;;;;;;;;;;;;11.68;80.37;100142.50;1814763;77;20256;-58
2021/06/02 08:10:30;;;;;;;;;;;;;;;11.71;79.86;100145.36;1834290;77;20258;-60
2021/06/02 08:13:05;;;;;;;;;;;;;;;11.73;79.79;100146.92;1819807;77;20148;-58
2021/06/02 08:15:47;;;;;;;;;;;;;;;11.76;79.76;100159.75;1829356;77;20166;-57
2021/06/02 08:18:21;;;;;;;;;;;;;;;11.81;79.43;100174.64;1820520;77;20149;-58
2021/06/02 08:20:56;;;;;;;;;;;;;;;11.84;79.48;100164.45;1815471;77;20299;-58
2021/06/02 08:23:31;;;;;;;;;;;;;;;11.86;79.51;100170.88;1831738;77;20135;-58
2021/06/02 08:26:16;;;;;;;;;;;;;;;11.85;79.72;100177.88;1794033;80;20123;-58
2021/06/02 08:28:50;;;;;;;;;;;;;;;11.90;79.63;100174.93;1826528;77;20449;-65
2021/06/02 08:31:24;;;;;;;;;;;;;;;11.88;79.39;100171.12;1794551;78;20559;-62
2021/06/02 08:34:00;;;;;;;;;;;;;;;11.86;79.66;100179.54;1823638;77;20245;-59
2021/06/02 08:36:45;;;;;;;;;;;;;;;11.79;80.06;100183.06;1770626;80;20251;-58
2021/06/02 08:39:19;;;;;;;;;;;;;;;11.79;80.36;100187.45;1815653;77;20488;-60
2021/06/02 08:41:54;;;;;;;;;;;;;;;11.74;80.87;100193.44;1817791;77;20546;-58
2021/06/02 08:44:29;;;;;;;;;;;;;;;11.67;81.58;100195.66;1812062;77;20303;-59
2021/06/02 08:47:14;;;;;;;;;;;;;;;11.58;82.11;100184.55;1780524;80;20151;-57
2021/06/02 08:49:48;;;;;;;;;;;;;;;11.60;82.75;100197.03;1809057;77;20225;-60
2021/06/02 08:52:22;;;;;;;;;;;;;;;11.60;83.17;100197.03;1823153;77;20260;-59
2021/06/02 08:54:57;;;;;;;;;;;;;;;11.59;83.06;100196.67;1825658;77;20550;-62
2021/06/02 08:57:32;;;;;;;;;;;;;;;11.56;83.61;100200.80;1827129;77;20507;-59
2021/06/02 09:00:19;;;;;;;;;;;;;;;11.48;83.87;100201.34;1780029;80;20177;-62
2021/06/02 09:02:54;;;;;;;;;;;;;;;11.54;84.11;100205.77;1825196;77;20522;-59
2021/06/02 09:05:30;;;;;;;;;;;;;;;11.55;84.14;100205.66;1817501;77;20523;-58
2021/06/02 09:08:19;;;;;;;;;;;;;;;11.53;84.10;100208.84;1775535;80;20173;-60
2021/06/02 09:10:52;;;;;;;;;;;;;;;11.61;84.05;100209.14;1828095;77;20489;-61
2021/06/02 09:13:27;;;;;;;;;;;;;;;11.63;83.71;100215.08;1769079;77;20723;-58
2021/06/02 09:16:24;;;;;;;;;;;;;;;11.60;83.55;100206.16;1733685;83;20257;-59
2021/06/02 09:19:04;;;;;;;;;;;;;;;11.68;83.59;100205.16;1814604;77;20260;-58
2021/06/02 09:21:39;;;;;;;;;;;;;;;11.72;83.45;100200.08;1824643;77;20117;-58
2021/06/02 09:24:13;;;;;;;;;;;;;;;11.75;83.45;100209.00;1809555;77;20180;-59
2021/06/02 09:26:48;;;;;;;;;;;;;;;11.78;82.61;100207.50;1805045;77;20395;-58
2021/06/02 09:29:21;;;;;;;;;;;;;;;11.82;82.53;100200.28;1814866;77;20264;-59
2021/06/02 09:31:53;;;;;;;;;;;;;;;11.86;82.54;100195.68;1817640;77;20391;-58
2021/06/02 09:34:29;;;;;;;;;;;;;;;11.90;82.48;100195.34;1818895;77;20159;-59
2021/06/02 09:37:03;;;;;;;;;;;;;;;11.96;82.36;100204.52;1820056;77;20186;-58
2021/06/02 09:39:42;;;;;;;;;;;;;;;11.97;82.26;100195.74;1818197;77;20271;-58
2021/06/02 09:42:26;;;;;;;;;;;;;;;11.96;82.74;100197.52;1804869;77;20242;-59
2021/06/02 09:45:13;;;;;;;;;;;;;;;11.93;83.03;100200.83;1787341;80;20150;-59
2021/06/02 09:47:51;;;;;;;;;;;;;;;11.95;83.45;100204.16;1812892;77;20161;-59
2021/06/02 09:50:37;;;;;;;;;;;;;;;11.91;83.72;100198.33;1764891;77;31042;-62
2021/06/02 09:53:18;;;;;;;;;;;;;;;11.91;83.99;100207.94;1813624;77;20152;-63
2021/06/02 09:55:53;;;;;;;;;;;;;;;11.91;84.16;100206.16;1809027;77;20295;-66
2021/06/02 09:58:26;;;;;;;;;;;;;;;11.93;83.90;100199.52;1818181;77;20674;-63
2021/06/02 10:01:13;;;;;;;;;;;;;;;11.89;83.71;100204.60;1767396;80;20293;-61
2021/06/02 10:03:47;;;;;;;;;;;;;;;11.96;83.69;100196.69;1824897;77;20264;-61
2021/06/02 10:06:24;;;;;;;;;;;;;;;11.97;83.52;100207.50;1807706;77;20157;-65
2021/06/02 10:08:59;;;;;;;;;;;;;;;11.99;83.32;100202.52;1811437;77;20269;-62
2021/06/02 10:11:58;;;;;;;;;;;;;;;11.99;83.37;100205.61;1764641;80;20286;-63
2021/06/02 10:14:33;;;;;;;;;;;;;;;12.08;83.38;100218.00;1821522;77;20258;-58
2021/06/02 10:17:26;;;;;;;;;;;;;;;12.10;83.35;100218.73;1805967;77;20264;-59
2021/06/02 10:20:09;;;;;;;;;;;;;;;12.12;83.47;100211.61;1808496;77;20309;-59
2021/06/02 10:22:59;;;;;;;;;;;;;;;12.09;83.48;100219.67;1784092;80;20179;-59
2021/06/02 10:25:33;;;;;;;;;;;;;;;12.15;83.64;100227.03;1827810;77;20259;-60
2021/06/02 10:28:06;;;;;;;;;;;;;;;12.17;83.69;100219.92;1821787;77;20414;-61
2021/06/02 10:30:39;;;;;;;;;;;;;;;12.19;83.83;100225.03;1809869;77;20252;-58
2021/06/02 10:33:14;;;;;;;;;;;;;;;12.21;84.02;100227.89;1797907;77;20120;-60
2021/06/02 10:35:46;;;;;;;;;;;;;;;12.24;83.91;100228.14;1824256;77;20154;-63
2021/06/02 10:38:21;;;;;;;;;;;;;;;12.28;84.13;100231.73;1807626;77;20482;-65
2021/06/02 10:40:55;;;;;;;;;;;;;;;12.34;84.13;100236.52;1775581;77;20995;-60
2021/06/02 10:43:42;;;;;;;;;;;;;;;12.33;84.22;100238.76;1728434;81;20428;-65
2021/06/02 10:46:21;;;;;;;;;;;;;;;12.43;84.15;100230.61;1810178;77;20258;-60
2021/06/02 10:48:56;;;;;;;;;;;;;;;12.51;84.15;100231.83;1832721;77;20385;-62
2021/06/02 10:51:33;;;;;;;;;;;;;;;12.56;84.05;100226.62;1824265;77;20180;-62
2021/06/02 10:54:16;;;;;;;;;;;;;;;12.63;83.59;100240.90;1814330;77;20494;-65
2021/06/02 10:57:00;;;;;;;;;;;;;;;12.68;82.80;100235.33;1799460;77;20291;-63
2021/06/02 10:59:53;;;;;;;;;;;;;;;12.71;82.93;100232.48;1823952;77;20143;-61
2021/06/02 11:02:29;;;;;;;;;;;;;;;12.74;83.10;100232.26;1809256;77;20146;-64
2021/06/02 11:05:16;;;;;;;;;;;;;;;12.73;83.18;100246.28;1776432;80;20141;-61
2021/06/02 11:07:51;;;;;;;;;;;;;;;12.79;83.09;100232.75;1829558;77;20216;-58
2021/06/02 11:10:32;;;;;;;;;;;;;;;12.81;82.56;100234.77;1824901;77;20292;-59
2021/06/02 11:13:07;;;;;;;;;;;;;;;12.82;82.85;100236.44;1814611;77;20115;-59
2021/06/02 11:15:44;;;;;;;;;;;;;;;12.83;83.01;100244.64;1796202;77;20277;-60
2021/06/02 11:18:29;;;;;;;;;;;;;;;12.80;83.06;100239.17;1773017;80;20315;-63
2021/06/02 11:21:04;;;;;;;;;;;;;;;12.84;83.30;100245.00;1821298;77;20252;-62
2021/06/02 11:23:41;;;;;;;;;;;;;;;12.86;83.64;100248.34;1813669;77;20249;-62
2021/06/02 11:26:29;;;;;;;;;;;;;;;12.82;83.86;100237.75;1764900;80;20213;-63
2021/06/02 11:29:07;;;;;;;;;;;;;;;12.88;83.97;100237.29;1806442;77;20225;-61
2021/06/02 11:31:40;;;;;;;;;;;;;;;12.91;84.05;100228.38;1822588;77;20246;-58
2021/06/02 11:34:29;;;;;;;;;;;;;;;12.98;84.06;100246.58;1811294;77;20266;-59
2021/06/02 11:37:15;;;;;;;;;;;;;;;13.06;83.41;100240.27;1807786;77;20147;-60
2021/06/02 11:40:15;;;;;;;;;;;;;;;13.07;83.12;100255.84;1778689;79;20190;-62
2021/06/02 11:42:52;;;;;;;;;;;;;;;13.17;83.61;100252.56;1822136;77;20251;-61
2021/06/02 11:45:26;;;;;;;;;;;;;;;13.14;84.35;100245.27;1759855;77;20143;-63
2021/06/02 11:48:03;;;;;;;;;;;;;;;13.13;84.76;100246.70;1823083;77;20155;-61
2021/06/02 11:50:49;;;;;;;;;;;;;;;13.05;85.27;100248.59;1797859;78;20190;-65
2021/06/02 11:53:41;;;;;;;;;;;;;;;13.06;85.87;100243.72;1811548;77;20115;-61
2021/06/02 11:56:17;;;;;;;;;;;;;;;13.04;86.61;100245.61;1805249;77;20260;-60
2021/06/02 11:58:50;;;;;;;;;;;;;;;13.01;86.85;100243.23;1812346;77;20262;-62
2021/06/02 12:01:23;;;;;;;;;;;;;;;13.00;88.79;100252.03;1805978;77;20901;-64
2021/06/02 12:03:56;;;;;;;;;;;;;;;12.99;89.50;100245.16;1827268;77;20145;-63
2021/06/02 12:06:32;;;;;;;;;;;;;;;13.01;89.50;100252.86;1829073;77;21001;-62
2021/06/02 12:09:10;;;;;;;;;;;;;;;13.05;88.14;100254.30;1827034;77;20372;-60
2021/06/02 12:11:56;;;;;;;;;;;;;;;13.01;87.96;100257.61;1795445;79;20135;-61
2021/06/02 12:14:30;;;;;;;;;;;;;;;13.08;88.04;100257.52;1796053;77;20282;-60
2021/06/02 12:17:05;;;;;;;;;;;;;;;13.10;88.03;100259.54;1803502;77;20149;-61
2021/06/02 12:19:50;;;;;;;;;;;;;;;13.05;87.92;100270.83;1815236;78;20168;-62
2021/06/02 12:22:25;;;;;;;;;;;;;;;13.09;88.05;100256.56;1812203;77;20372;-62
2021/06/02 12:25:16;;;;;;;;;;;;;;;13.10;88.20;100266.08;1812688;77;20264;-64
2021/06/02 12:28:00;;;;;;;;;;;;;;;13.09;88.33;100258.34;1795852;77;20143;-58
2021/06/02 12:30:45;;;;;;;;;;;;;;;13.05;88.48;100266.90;1766734;80;20149;-63
2021/06/02 12:33:18;;;;;;;;;;;;;;;13.10;88.58;100272.62;1810962;77;20589;-59
2021/06/02 12:35:52;;;;;;;;;;;;;;;13.13;88.70;100264.54;1813691;77;20487;-59
2021/06/02 12:38:27;;;;;;;;;;;;;;;13.16;88.76;100268.73;1769844;77;20254;-58
2021/06/02 12:41:13;;;;;;;;;;;;;;;13.14;88.82;100275.36;1726034;83;20303;-58
2021/06/02 12:43:47;;;;;;;;;;;;;;;13.23;88.89;100278.27;1812121;77;20272;-59
2021/06/02 12:46:22;;;;;;;;;;;;;;;13.26;89.05;100284.09;1810732;77;20158;-62
2021/06/02 12:49:09;;;;;;;;;;;;;;;13.25;89.04;100276.36;1769105;80;20156;-64
2021/06/02 12:51:43;;;;;;;;;;;;;;;13.30;89.08;100275.06;1826938;77;20271;-61
2021/06/02 12:54:16;;;;;;;;;;;;;;;13.33;89.19;100277.92;1792998;77;20274;-60
2021/06/02 12:56:50;;;;;;;;;;;;;;;13.33;89.39;100279.23;1814517;77;20228;-66
2021/06/02 12:59:33;;;;;;;;;;;;;;;13.35;89.48;100277.33;1824873;77;20147;-64
2021/06/02 13:02:07;;;;;;;;;;;;;;;13.39;89.48;100284.83;1818500;77;20246;-58
2021/06/02 13:04:40;;;;;;;;;;;;;;;13.43;89.50;100288.05;1795946;77;20143;-58
2021/06/02 13:07:14;;;;;;;;;;;;;;;13.46;89.44;100277.34;1820689;77;20458;-60
2021/06/02 13:09:57;;;;;;;;;;;;;;;13.50;89.27;100280.08;1807079;77;20150;-59
2021/06/02 13:12:54;;;;;;;;;;;;;;;13.49;89.29;100274.48;1785801;80;20191;-58
2021/06/02 13:15:34;;;;;;;;;;;;;;;13.57;88.98;100273.89;1820071;77;20471;-59
2021/06/02 13:18:22;;;;;;;;;;;;;;;13.60;88.97;100281.03;1821277;77;20264;-60
2021/06/02 13:20:59;;;;;;;;;;;;;;;13.64;88.89;100281.16;1807648;77;20138;-59
2021/06/02 13:23:44;;;;;;;;;;;;;;;13.63;88.72;100280.80;1781330;78;20286;-58
2021/06/02 13:26:19;;;;;;;;;;;;;;;13.71;88.76;100275.80;1813978;77;20268;-59
2021/06/02 13:28:54;;;;;;;;;;;;;;;13.75;88.50;100273.29;1811890;77;20256;-58
2021/06/02 13:31:44;;;;;;;;;;;;;;;13.75;88.43;100275.91;1792831;80;20176;-58
2021/06/02 13:34:31;;;;;;;;;;;;;;;13.86;88.05;100270.30;1820918;77;20285;-61
2021/06/02 13:37:18;;;;;;;;;;;;;;;13.88;87.81;100269.67;1809625;77;20153;-59
2021/06/02 13:40:11;;;;;;;;;;;;;;;13.92;87.81;100271.09;1805674;77;20155;-58
2021/06/02 13:43:04;;;;;;;;;;;;;;;13.98;87.75;100273.23;1808099;77;20263;-59
2021/06/02 13:45:56;;;;;;;;;;;;;;;14.08;87.68;100272.86;1816559;77;20281;-60
2021/06/02 13:48:39;;;;;;;;;;;;;;;14.11;87.41;100266.89;1806430;77;20110;-63
2021/06/02 13:51:33;;;;;;;;;;;;;;;14.15;87.31;100263.55;1802487;77;20254;-61
2021/06/02 13:54:25;;;;;;;;;;;;;;;14.20;87.15;100264.49;1810008;77;20229;-63
2021/06/02 13:57:11;;;;;;;;;;;;;;;14.21;87.00;100264.37;1812408;77;20139;-66
2021/06/02 13:59:53;;;;;;;;;;;;;;;14.27;86.68;100265.66;1808841;77;20274;-59
2021/06/02 14:02:33;;;;;;;;;;;;;;;14.31;86.64;100265.30;1804298;77;20114;-58
2021/06/02 14:05:19;;;;;;;;;;;;;;;14.29;86.50;100258.03;1781211;80;20453;-68